Time,TemperatureF,DewpointF,PressureIn,WindDirection,WindDirectionDegrees,WindSpeedMPH,WindSpeedGustMPH,Humidity,HourlyPrecipIn,Conditions,Clouds,dailyrainin,SoftwareType,DateUTC
2013-06-08 00:02:00,66.0,51.0,-100.00,NE,50,2.0,4.0,58,-99.99,,,-99.99,,2013-06-08 07:02:00,
2013-06-08 00:12:00,66.0,51.0,-100.00,SW,214,3.0,6.0,58,-99.99,,,-99.99,,2013-06-08 07:12:00,
2013-06-08 00:22:00,67.0,52.0,-100.00,NNW,332,2.0,5.0,58,-99.99,,,-99.99,,2013-06-08 07:22:00,
2013-06-08 00:32:00,67.0,52.0,-100.00,SSE,162,2.0,5.0,58,-99.99,,,-99.99,,2013-06-08 07:32:00,
2013-06-08 00:42:00,66.0,51.0,-100.00,East,96,3.0,5.0,58,-99.99,,,-99.99,,2013-06-08 07:42:00,
2013-06-08 00:52:00,66.0,51.0,-100.00,East,96,3.0,5.0,58,-99.99,,,-99.99,,2013-06-08 07:52:00,
2013-06-08 01:02:00,69.0,51.0,-100.00,NNW,346,2.0,5.0,52,-99.99,,,-99.99,,2013-06-08 08:02:00,
2013-06-08 01:12:00,67.0,50.0,-100.00,NE,48,3.0,4.0,55,-99.99,,,-99.99,,2013-06-08 08:12:00,
2013-06-08 01:22:00,69.0,48.0,-100.00,WSW,239,2.0,7.0,47,-99.99,,,-99.99,,2013-06-08 08:22:00,
2013-06-08 01:32:00,70.0,49.0,-100.00,NNW,344,3.0,6.0,47,-99.99,,,-99.99,,2013-06-08 08:32:00,
2013-06-08 01:42:00,67.0,49.0,-100.00,East,83,2.0,4.0,52,-99.99,,,-99.99,,2013-06-08 08:42:00,
2013-06-08 01:52:00,67.0,49.0,-100.00,North,2,1.0,2.0,53,-99.99,,,-99.99,,2013-06-08 08:52:00,
2013-06-08 02:02:00,67.0,48.0,-100.00,WSW,244,1.0,2.0,51,-99.99,,,-99.99,,2013-06-08 09:02:00,
2013-06-08 02:12:00,68.0,45.0,-100.00,West,278,3.0,5.0,44,-99.99,,,-99.99,,2013-06-08 09:12:00,
2013-06-08 02:22:00,67.0,49.0,-100.00,East,89,2.0,4.0,52,-99.99,,,-99.99,,2013-06-08 09:22:00,
2013-06-08 02:33:00,67.0,49.0,-100.00,WNW,302,2.0,5.0,53,-99.99,,,-99.99,,2013-06-08 09:33:00,
2013-06-08 02:42:00,66.0,48.0,-100.00,NW,310,3.0,5.0,53,-99.99,,,-99.99,,2013-06-08 09:42:00,
2013-06-08 02:52:00,67.0,46.0,-100.00,NW,325,3.0,5.0,47,-99.99,,,-99.99,,2013-06-08 09:52:00,
2013-06-08 03:02:00,68.0,45.0,-100.00,NW,326,3.0,4.0,43,-99.99,,,-99.99,,2013-06-08 10:02:00,
2013-06-08 03:12:00,69.0,44.0,-100.00,NNW,335,2.0,4.0,41,-99.99,,,-99.99,,2013-06-08 10:12:00,
2013-06-08 03:22:00,68.0,45.0,-100.00,West,269,3.0,5.0,43,-99.99,,,-99.99,,2013-06-08 10:22:00,
2013-06-08 03:33:00,69.0,42.0,-100.00,SW,235,2.0,4.0,38,-99.99,,,-99.99,,2013-06-08 10:33:00,
2013-06-08 03:42:00,69.0,39.0,-100.00,SSW,212,6.0,9.0,34,-99.99,,,-99.99,,2013-06-08 10:42:00,
2013-06-08 03:52:00,69.0,38.0,-100.00,SW,226,7.0,8.0,32,-99.99,,,-99.99,,2013-06-08 10:52:00,
2013-06-08 04:02:00,69.0,36.0,-100.00,SW,229,6.0,8.0,30,-99.99,,,-99.99,,2013-06-08 11:02:00,
2013-06-08 04:12:00,68.0,34.0,-100.00,SW,225,6.0,9.0,28,-99.99,,,-99.99,,2013-06-08 11:12:00,
2013-06-08 04:22:00,68.0,32.0,-100.00,SW,232,7.0,11.0,26,-99.99,,,-99.99,,2013-06-08 11:22:00,
2013-06-08 04:32:00,68.0,32.0,-100.00,WSW,242,7.0,10.0,26,-99.99,,,-99.99,,2013-06-08 11:32:00,
2013-06-08 04:42:00,68.0,36.0,-100.00,WSW,252,5.0,8.0,31,-99.99,,,-99.99,,2013-06-08 11:42:00,
2013-06-08 04:52:00,68.0,37.0,-100.00,WSW,245,4.0,7.0,32,-99.99,,,-99.99,,2013-06-08 11:52:00,
2013-06-08 05:02:00,67.0,37.0,-100.00,West,266,4.0,8.0,33,-99.99,,,-99.99,,2013-06-08 12:02:00,
2013-06-08 05:12:00,67.0,35.0,-100.00,WNW,284,4.0,5.0,31,-99.99,,,-99.99,,2013-06-08 12:12:00,
2013-06-08 05:21:00,67.0,34.0,-100.00,West,261,5.0,6.0,29,-99.99,,,-99.99,,2013-06-08 12:21:00,
2013-06-08 05:32:00,68.0,32.0,-100.00,WSW,237,6.0,7.0,26,-99.99,,,-99.99,,2013-06-08 12:32:00,
2013-06-08 05:42:00,69.0,31.0,-100.00,SW,224,8.0,10.0,24,-99.99,,,-99.99,,2013-06-08 12:42:00,
2013-06-08 05:52:00,69.0,29.0,-100.00,SW,227,8.0,9.0,22,-99.99,,,-99.99,,2013-06-08 12:52:00,
2013-06-08 06:02:00,69.0,26.0,-100.00,SW,223,8.0,10.0,20,-99.99,,,-99.99,,2013-06-08 13:02:00,
2013-06-08 06:12:00,69.0,25.0,-100.00,SW,217,8.0,10.0,19,-99.99,,,-99.99,,2013-06-08 13:12:00,
2013-06-08 06:22:00,68.0,24.0,-100.00,West,264,4.0,7.0,19,-99.99,,,-99.99,,2013-06-08 13:22:00,
2013-06-08 06:32:00,69.0,21.0,-100.00,WSW,253,4.0,5.0,16,-99.99,,,-99.99,,2013-06-08 13:32:00,
2013-06-08 06:42:00,70.0,23.0,-100.00,WNW,283,3.0,5.0,17,-99.99,,,-99.99,,2013-06-08 13:42:00,
2013-06-08 06:52:00,70.0,23.0,-100.00,WNW,283,3.0,5.0,17,-99.99,,,-99.99,,2013-06-08 13:52:00,
2013-06-08 07:02:00,68.0,30.0,-100.00,NW,314,4.0,5.0,24,-99.99,,,-99.99,,2013-06-08 14:02:00,
2013-06-08 07:11:00,67.0,32.0,-100.00,NW,310,4.0,5.0,27,-99.99,,,-99.99,,2013-06-08 14:11:00,
2013-06-08 07:21:00,70.0,32.0,-100.00,NW,325,3.0,4.0,24,-99.99,,,-99.99,,2013-06-08 14:21:00,
2013-06-08 07:32:00,70.0,35.0,-100.00,NNW,328,4.0,5.0,28,-99.99,,,-99.99,,2013-06-08 14:32:00,
2013-06-08 07:42:00,71.0,37.0,-100.00,NW,324,3.0,4.0,29,-99.99,,,-99.99,,2013-06-08 14:42:00,
2013-06-08 07:52:00,73.0,37.0,-100.00,NNW,339,3.0,4.0,27,-99.99,,,-99.99,,2013-06-08 14:52:00,
2013-06-08 08:02:00,75.0,35.0,-100.00,North,354,2.0,4.0,23,-99.99,,,-99.99,,2013-06-08 15:02:00,
2013-06-08 08:12:00,78.0,36.0,-100.00,North,355,2.0,3.0,22,-99.99,,,-99.99,,2013-06-08 15:12:00,
2013-06-08 08:21:00,79.0,36.0,-100.00,NNW,330,1.0,3.0,21,-99.99,,,-99.99,,2013-06-08 15:21:00,
2013-06-08 08:32:00,80.0,35.0,-100.00,WNW,302,1.0,2.0,20,-99.99,,,-99.99,,2013-06-08 15:32:00,
2013-06-08 08:42:00,82.0,36.0,-100.00,NW,324,1.0,2.0,19,-99.99,,,-99.99,,2013-06-08 15:42:00,
2013-06-08 08:53:00,82.0,36.0,-100.00,NW,324,1.0,2.0,19,-99.99,,,-99.99,,2013-06-08 15:53:00,
2013-06-08 09:02:00,84.0,33.0,-100.00,SSW,212,2.0,5.0,16,-99.99,,,-99.99,,2013-06-08 16:02:00,
2013-06-08 09:12:00,86.0,29.0,-100.00,SSW,205,2.0,5.0,13,-99.99,,,-99.99,,2013-06-08 16:12:00,
2013-06-08 09:22:00,87.0,30.0,-100.00,ESE,107,3.0,6.0,13,-99.99,,,-99.99,,2013-06-08 16:22:00,
2013-06-08 09:32:00,88.0,29.0,-100.00,East,96,5.0,9.0,12,-99.99,,,-99.99,,2013-06-08 16:32:00,
2013-06-08 09:42:00,88.0,27.0,-100.00,East,91,7.0,10.0,11,-99.99,,,-99.99,,2013-06-08 16:42:00,
2013-06-08 09:53:00,88.0,27.0,-100.00,East,91,7.0,10.0,11,-99.99,,,-99.99,,2013-06-08 16:53:00,
2013-06-08 10:02:00,89.0,23.0,-100.00,East,88,10.0,14.0,9,-99.99,,,-99.99,,2013-06-08 17:02:00,
2013-06-08 10:12:00,89.0,20.0,-100.00,East,87,12.0,16.0,8,-99.99,,,-99.99,,2013-06-08 17:12:00,
2013-06-08 10:22:00,90.0,21.0,-100.00,ENE,75,11.0,16.0,8,-99.99,,,-99.99,,2013-06-08 17:22:00,
2013-06-08 10:32:00,90.0,21.0,-100.00,East,84,13.0,18.0,8,-99.99,,,-99.99,,2013-06-08 17:32:00,
2013-06-08 10:42:00,89.0,20.0,-100.00,East,79,13.0,18.0,8,-99.99,,,-99.99,,2013-06-08 17:42:00,
2013-06-08 10:52:00,89.0,20.0,-100.00,East,79,13.0,18.0,8,-99.99,,,-99.99,,2013-06-08 17:52:00,
2013-06-08 11:02:00,89.0,20.0,-100.00,East,89,14.0,20.0,8,-99.99,,,-99.99,,2013-06-08 18:02:00,
2013-06-08 11:12:00,90.0,24.0,-100.00,ENE,76,12.0,17.0,9,-99.99,,,-99.99,,2013-06-08 18:12:00,
2013-06-08 11:22:00,90.0,24.0,-100.00,East,88,12.0,18.0,9,-99.99,,,-99.99,,2013-06-08 18:22:00,
2013-06-08 11:32:00,90.0,24.0,-100.00,East,81,9.0,18.0,9,-99.99,,,-99.99,,2013-06-08 18:32:00,
2013-06-08 11:41:00,90.0,24.0,-100.00,ENE,71,9.0,17.0,9,-99.99,,,-99.99,,2013-06-08 18:41:00,
2013-06-08 11:52:00,90.0,24.0,-100.00,East,82,10.0,19.0,9,-99.99,,,-99.99,,2013-06-08 18:52:00,
2013-06-08 12:02:00,90.0,24.0,-100.00,East,86,10.0,17.0,9,-99.99,,,-99.99,,2013-06-08 19:02:00,
2013-06-08 12:12:00,91.0,24.0,-100.00,East,90,10.0,17.0,9,-99.99,,,-99.99,,2013-06-08 19:12:00,
2013-06-08 12:22:00,91.0,27.0,-100.00,ENE,76,10.0,17.0,10,-99.99,,,-99.99,,2013-06-08 19:22:00,
2013-06-08 12:32:00,91.0,27.0,-100.00,ENE,72,7.0,15.0,10,-99.99,,,-99.99,,2013-06-08 19:32:00,
2013-06-08 12:42:00,91.0,31.0,-100.00,NE,39,9.0,16.0,12,-99.99,,,-99.99,,2013-06-08 19:42:00,
2013-06-08 12:52:00,91.0,31.0,-100.00,NE,56,7.0,14.0,12,-99.99,,,-99.99,,2013-06-08 19:52:00,
2013-06-08 13:02:00,91.0,33.0,-100.00,NE,43,7.0,14.0,13,-99.99,,,-99.99,,2013-06-08 20:02:00,
2013-06-08 13:12:00,90.0,33.0,-100.00,East,101,5.0,11.0,13,-99.99,,,-99.99,,2013-06-08 20:12:00,
2013-06-08 13:22:00,90.0,33.0,-100.00,East,101,5.0,11.0,13,-99.99,,,-99.99,,2013-06-08 20:22:00,
2013-06-08 13:32:00,90.0,34.0,-100.00,North,5,5.0,14.0,14,-99.99,,,-99.99,,2013-06-08 20:32:00,
2013-06-08 13:42:00,90.0,34.0,-100.00,NW,307,7.0,13.0,14,-99.99,,,-99.99,,2013-06-08 20:42:00,
2013-06-08 13:52:00,90.0,34.0,-100.00,NW,307,7.0,13.0,14,-99.99,,,-99.99,,2013-06-08 20:52:00,
2013-06-08 14:02:00,90.0,33.0,-100.00,West,276,6.0,12.0,13,-99.99,,,-99.99,,2013-06-08 21:02:00,
2013-06-08 14:11:00,89.0,32.0,-100.00,WNW,300,9.0,14.0,13,-99.99,,,-99.99,,2013-06-08 21:11:00,
2013-06-08 14:22:00,90.0,33.0,-100.00,West,263,7.0,13.0,13,-99.99,,,-99.99,,2013-06-08 21:22:00,
2013-06-08 14:33:00,91.0,33.0,-100.00,West,262,9.0,15.0,13,-99.99,,,-99.99,,2013-06-08 21:33:00,
2013-06-08 14:43:00,90.0,33.0,-100.00,WSW,244,9.0,16.0,13,-99.99,,,-99.99,,2013-06-08 21:43:00,
2013-06-08 14:52:00,90.0,31.0,-100.00,WSW,245,9.0,19.0,12,-99.99,,,-99.99,,2013-06-08 21:52:00,
2013-06-08 15:02:00,90.0,33.0,-100.00,West,274,13.0,20.0,13,-99.99,,,-99.99,,2013-06-08 22:02:00,
2013-06-08 15:12:00,89.0,30.0,-100.00,WSW,255,12.0,18.0,12,-99.99,,,-99.99,,2013-06-08 22:12:00,
2013-06-08 15:22:00,90.0,31.0,-100.00,WSW,257,11.0,17.0,12,-99.99,,,-99.99,,2013-06-08 22:22:00,
2013-06-08 15:33:00,89.0,32.0,-100.00,West,259,12.0,20.0,13,-99.99,,,-99.99,,2013-06-08 22:33:00,
2013-06-08 15:42:00,89.0,32.0,-100.00,West,264,12.0,17.0,13,-99.99,,,-99.99,,2013-06-08 22:42:00,
2013-06-08 15:52:00,89.0,32.0,-100.00,West,264,12.0,17.0,13,-99.99,,,-99.99,,2013-06-08 22:52:00,
2013-06-08 16:02:00,87.0,35.0,-100.00,West,264,14.0,23.0,16,-99.99,,,-99.99,,2013-06-08 23:02:00,
2013-06-08 16:12:00,86.0,38.0,-100.00,West,262,14.0,21.0,18,-99.99,,,-99.99,,2013-06-08 23:12:00,
2013-06-08 16:22:00,86.0,38.0,-100.00,West,270,14.0,22.0,18,-99.99,,,-99.99,,2013-06-08 23:22:00,
2013-06-08 16:32:00,85.0,37.0,-100.00,West,264,14.0,22.0,18,-99.99,,,-99.99,,2013-06-08 23:32:00,
2013-06-08 16:42:00,86.0,35.0,-100.00,WSW,257,13.0,19.0,16,-99.99,,,-99.99,,2013-06-08 23:42:00,
2013-06-08 16:52:00,86.0,35.0,-100.00,WSW,257,13.0,19.0,16,-99.99,,,-99.99,,2013-06-08 23:52:00,
2013-06-08 17:02:00,86.0,33.0,-100.00,West,261,13.0,20.0,15,-99.99,,,-99.99,,2013-06-09 00:02:00,
2013-06-08 17:12:00,85.0,32.0,-100.00,West,263,13.0,17.0,15,-99.99,,,-99.99,,2013-06-09 00:12:00,
2013-06-08 17:21:00,85.0,34.0,-100.00,West,266,14.0,20.0,16,-99.99,,,-99.99,,2013-06-09 00:21:00,
2013-06-08 17:32:00,85.0,32.0,-100.00,West,265,13.0,19.0,15,-99.99,,,-99.99,,2013-06-09 00:32:00,
2013-06-08 17:42:00,84.0,34.0,-100.00,West,265,14.0,19.0,17,-99.99,,,-99.99,,2013-06-09 00:42:00,
2013-06-08 17:51:00,84.0,34.0,-100.00,West,262,13.0,19.0,17,-99.99,,,-99.99,,2013-06-09 00:51:00,
2013-06-08 18:02:00,83.0,34.0,-100.00,West,269,13.0,21.0,17,-99.99,,,-99.99,,2013-06-09 01:02:00,
2013-06-08 18:12:00,84.0,36.0,-100.00,WSW,258,12.0,17.0,18,-99.99,,,-99.99,,2013-06-09 01:12:00,
2013-06-08 18:21:00,83.0,35.0,-100.00,West,263,10.0,16.0,18,-99.99,,,-99.99,,2013-06-09 01:21:00,
2013-06-08 18:32:00,83.0,36.0,-100.00,West,265,12.0,19.0,19,-99.99,,,-99.99,,2013-06-09 01:32:00,
2013-06-08 18:41:00,83.0,35.0,-100.00,West,268,12.0,16.0,18,-99.99,,,-99.99,,2013-06-09 01:41:00,
2013-06-08 18:52:00,82.0,36.0,-100.00,West,271,13.0,17.0,19,-99.99,,,-99.99,,2013-06-09 01:52:00,
2013-06-08 19:02:00,82.0,39.0,-100.00,West,269,11.0,17.0,22,-99.99,,,-99.99,,2013-06-09 02:02:00,
2013-06-08 19:12:00,81.0,42.0,-100.00,West,268,12.0,17.0,25,-99.99,,,-99.99,,2013-06-09 02:12:00,
2013-06-08 19:21:00,80.0,43.0,-100.00,West,264,11.0,17.0,27,-99.99,,,-99.99,,2013-06-09 02:21:00,
2013-06-08 19:32:00,79.0,43.0,-100.00,West,261,11.0,15.0,28,-99.99,,,-99.99,,2013-06-09 02:32:00,
2013-06-08 19:42:00,78.0,44.0,-100.00,West,261,11.0,16.0,30,-99.99,,,-99.99,,2013-06-09 02:42:00,
2013-06-08 19:52:00,77.0,45.0,-100.00,West,263,11.0,15.0,32,-99.99,,,-99.99,,2013-06-09 02:52:00,
2013-06-08 20:02:00,76.0,45.0,-100.00,West,260,12.0,16.0,33,-99.99,,,-99.99,,2013-06-09 03:02:00,
2013-06-08 20:12:00,75.0,44.0,-100.00,West,264,12.0,18.0,33,-99.99,,,-99.99,,2013-06-09 03:12:00,
2013-06-08 20:21:00,74.0,44.0,-100.00,West,265,12.0,18.0,34,-99.99,,,-99.99,,2013-06-09 03:21:00,
2013-06-08 20:32:00,73.0,43.0,-100.00,West,267,13.0,18.0,34,-99.99,,,-99.99,,2013-06-09 03:32:00,
2013-06-08 20:43:00,72.0,43.0,-100.00,West,267,13.0,18.0,35,-99.99,,,-99.99,,2013-06-09 03:43:00,
2013-06-08 20:53:00,72.0,43.0,-100.00,West,267,12.0,17.0,35,-99.99,,,-99.99,,2013-06-09 03:53:00,
2013-06-08 21:02:00,72.0,44.0,-100.00,West,268,11.0,16.0,36,-99.99,,,-99.99,,2013-06-09 04:02:00,
2013-06-08 21:12:00,72.0,44.0,-100.00,West,271,11.0,14.0,36,-99.99,,,-99.99,,2013-06-09 04:12:00,
2013-06-08 21:22:00,73.0,41.0,-100.00,West,271,9.0,13.0,32,-99.99,,,-99.99,,2013-06-09 04:22:00,
2013-06-08 21:32:00,74.0,39.0,-100.00,West,268,5.0,8.0,28,-99.99,,,-99.99,,2013-06-09 04:32:00,
2013-06-08 21:42:00,73.0,39.0,-100.00,West,259,6.0,8.0,29,-99.99,,,-99.99,,2013-06-09 04:42:00,
2013-06-08 21:52:00,73.0,39.0,-100.00,West,259,6.0,8.0,29,-99.99,,,-99.99,,2013-06-09 04:52:00,
2013-06-08 22:02:00,74.0,38.0,-100.00,West,271,6.0,9.0,27,-99.99,,,-99.99,,2013-06-09 05:02:00,
2013-06-08 22:12:00,73.0,41.0,-100.00,West,272,8.0,12.0,31,-99.99,,,-99.99,,2013-06-09 05:12:00,
2013-06-08 22:21:00,73.0,41.0,-100.00,West,274,9.0,12.0,32,-99.99,,,-99.99,,2013-06-09 05:21:00,
2013-06-08 22:32:00,73.0,41.0,-100.00,West,274,10.0,14.0,32,-99.99,,,-99.99,,2013-06-09 05:32:00,
2013-06-08 22:42:00,73.0,40.0,-100.00,West,271,9.0,14.0,30,-99.99,,,-99.99,,2013-06-09 05:42:00,
2013-06-08 22:52:00,73.0,38.0,-100.00,West,281,8.0,12.0,28,-99.99,,,-99.99,,2013-06-09 05:52:00,
2013-06-08 23:02:00,73.0,36.0,-100.00,West,278,8.0,11.0,26,-99.99,,,-99.99,,2013-06-09 06:02:00,
2013-06-08 23:11:00,73.0,34.0,-100.00,West,277,7.0,11.0,24,-99.99,,,-99.99,,2013-06-09 06:11:00,
2013-06-08 23:22:00,72.0,34.0,-100.00,West,272,7.0,10.0,25,-99.99,,,-99.99,,2013-06-09 06:22:00,
2013-06-08 23:32:00,72.0,33.0,-100.00,West,263,8.0,11.0,24,-99.99,,,-99.99,,2013-06-09 06:32:00,
2013-06-08 23:42:00,73.0,30.0,-100.00,West,262,8.0,9.0,20,-99.99,,,-99.99,,2013-06-09 06:42:00,
2013-06-08 23:52:00,74.0,28.0,-100.00,West,260,7.0,9.0,18,-99.99,,,-99.99,,2013-06-09 06:52:00,